sensor_id;sensor_type;location;lat;lon;timestamp;P1;durP1;ratioP1;P2;durP2;ratioP2
47669;SDS011;33408;52.062;11.722;2023-05-07T00:00:18;20.17;;;13.02;;
47669;SDS011;33408;52.062;11.722;2023-05-07T00:02:46;14.93;;;11.85;;
47669;SDS011;33408;52.062;11.722;2023-05-07T00:05:13;17.60;;;13.40;;
47669;SDS011;33408;52.062;11.722;2023-05-07T00:07:40;17.38;;;13.63;;
47669;SDS011;33408;52.062;11.722;2023-05-07T00:10:07;16.58;;;12.70;;
47669;SDS011;33408;52.062;11.722;2023-05-07T00:12:37;16.13;;;11.93;;
47669;SDS011;33408;52.062;11.722;2023-05-07T00:15:04;14.75;;;11.70;;
47669;SDS011;33408;52.062;11.722;2023-05-07T00:17:32;19.65;;;13.30;;
47669;SDS011;33408;52.062;11.722;2023-05-07T00:20:01;15.57;;;11.60;;
47669;SDS011;33408;52.062;11.722;2023-05-07T00:22:28;13.95;;;10.48;;
47669;SDS011;33408;52.062;11.722;2023-05-07T00:24:55;16.00;;;10.75;;
47669;SDS011;33408;52.062;11.722;2023-05-07T00:27:22;12.18;;;9.68;;
47669;SDS011;33408;52.062;11.722;2023-05-07T00:29:48;14.30;;;10.35;;
47669;SDS011;33408;52.062;11.722;2023-05-07T00:32:15;13.13;;;10.20;;
47669;SDS011;33408;52.062;11.722;2023-05-07T00:34:42;14.48;;;10.13;;
47669;SDS011;33408;52.062;11.722;2023-05-07T00:37:10;13.35;;;9.48;;
47669;SDS011;33408;52.062;11.722;2023-05-07T00:39:37;11.38;;;8.52;;
47669;SDS011;33408;52.062;11.722;2023-05-07T00:42:03;10.57;;;7.75;;
47669;SDS011;33408;52.062;11.722;2023-05-07T00:44:30;11.45;;;8.35;;
47669;SDS011;33408;52.062;11.722;2023-05-07T00:46:57;11.20;;;8.18;;
47669;SDS011;33408;52.062;11.722;2023-05-07T00:49:24;12.15;;;8.00;;
47669;SDS011;33408;52.062;11.722;2023-05-07T00:51:59;10.70;;;7.88;;
47669;SDS011;33408;52.062;11.722;2023-05-07T00:54:27;9.23;;;6.78;;
47669;SDS011;33408;52.062;11.722;2023-05-07T00:56:54;9.95;;;7.53;;
47669;SDS011;33408;52.062;11.722;2023-05-07T00:59:21;8.43;;;6.60;;
47669;SDS011;33408;52.062;11.722;2023-05-07T01:01:48;8.68;;;6.75;;
47669;SDS011;33408;52.062;11.722;2023-05-07T01:04:15;7.32;;;5.13;;
47669;SDS011;33408;52.062;11.722;2023-05-07T01:06:41;7.78;;;5.35;;
47669;SDS011;33408;52.062;11.722;2023-05-07T01:09:08;8.52;;;6.18;;
47669;SDS011;33408;52.062;11.722;2023-05-07T01:11:36;8.88;;;6.55;;
47669;SDS011;33408;52.062;11.722;2023-05-07T01:14:03;9.27;;;7.32;;
47669;SDS011;33408;52.062;11.722;2023-05-07T01:16:30;10.13;;;7.10;;
47669;SDS011;33408;52.062;11.722;2023-05-07T01:18:57;9.93;;;7.63;;
47669;SDS011;33408;52.062;11.722;2023-05-07T01:21:25;9.95;;;8.00;;
47669;SDS011;33408;52.062;11.722;2023-05-07T01:23:54;10.45;;;7.78;;
47669;SDS011;33408;52.062;11.722;2023-05-07T01:26:21;11.60;;;8.60;;
47669;SDS011;33408;52.062;11.722;2023-05-07T01:28:48;11.25;;;8.40;;
47669;SDS011;33408;52.062;11.722;2023-05-07T01:31:15;11.40;;;8.77;;
47669;SDS011;33408;52.062;11.722;2023-05-07T01:33:43;11.70;;;8.30;;
47669;SDS011;33408;52.062;11.722;2023-05-07T01:36:12;10.07;;;7.30;;
47669;SDS011;33408;52.062;11.722;2023-05-07T01:38:39;11.70;;;8.02;;
47669;SDS011;33408;52.062;11.722;2023-05-07T01:41:09;13.75;;;8.48;;
47669;SDS011;33408;52.062;11.722;2023-05-07T01:43:37;11.13;;;8.60;;
47669;SDS011;33408;52.062;11.722;2023-05-07T01:46:04;10.43;;;7.80;;
47669;SDS011;33408;52.062;11.722;2023-05-07T01:48:31;10.55;;;8.23;;
47669;SDS011;33408;52.062;11.722;2023-05-07T01:50:58;11.02;;;8.65;;
47669;SDS011;33408;52.062;11.722;2023-05-07T01:53:26;15.18;;;8.85;;
47669;SDS011;33408;52.062;11.722;2023-05-07T01:55:53;10.90;;;8.35;;
47669;SDS011;33408;52.062;11.722;2023-05-07T01:58:21;13.05;;;9.50;;
47669;SDS011;33408;52.062;11.722;2023-05-07T02:00:47;11.85;;;9.25;;
47669;SDS011;33408;52.062;11.722;2023-05-07T02:03:14;11.55;;;8.90;;
47669;SDS011;33408;52.062;11.722;2023-05-07T02:05:40;11.60;;;8.35;;
47669;SDS011;33408;52.062;11.722;2023-05-07T02:08:07;10.88;;;8.55;;
47669;SDS011;33408;52.062;11.722;2023-05-07T02:10:34;11.65;;;9.07;;
47669;SDS011;33408;52.062;11.722;2023-05-07T02:13:01;11.95;;;8.98;;
47669;SDS011;33408;52.062;11.722;2023-05-07T02:15:29;11.73;;;9.32;;
47669;SDS011;33408;52.062;11.722;2023-05-07T02:17:59;11.02;;;8.90;;
47669;SDS011;33408;52.062;11.722;2023-05-07T02:20:26;12.02;;;9.52;;
47669;SDS011;33408;52.062;11.722;2023-05-07T02:22:53;12.35;;;9.13;;
47669;SDS011;33408;52.062;11.722;2023-05-07T02:25:20;17.10;;;10.68;;
47669;SDS011;33408;52.062;11.722;2023-05-07T02:27:46;14.30;;;9.65;;
47669;SDS011;33408;52.062;11.722;2023-05-07T02:30:13;12.50;;;9.05;;
47669;SDS011;33408;52.062;11.722;2023-05-07T02:32:41;17.83;;;12.88;;
47669;SDS011;33408;52.062;11.722;2023-05-07T02:35:08;12.25;;;10.15;;
47669;SDS011;33408;52.062;11.722;2023-05-07T02:37:35;12.05;;;10.20;;
47669;SDS011;33408;52.062;11.722;2023-05-07T02:40:02;13.40;;;10.80;;
47669;SDS011;33408;52.062;11.722;2023-05-07T02:42:29;14.07;;;11.10;;
47669;SDS011;33408;52.062;11.722;2023-05-07T02:44:56;12.95;;;9.98;;
47669;SDS011;33408;52.062;11.722;2023-05-07T02:47:22;13.57;;;10.65;;
47669;SDS011;33408;52.062;11.722;2023-05-07T02:49:50;16.58;;;11.15;;
47669;SDS011;33408;52.062;11.722;2023-05-07T02:52:17;13.48;;;10.23;;
47669;SDS011;33408;52.062;11.722;2023-05-07T02:54:43;11.20;;;9.38;;
47669;SDS011;33408;52.062;11.722;2023-05-07T02:57:10;13.30;;;9.50;;
47669;SDS011;33408;52.062;11.722;2023-05-07T02:59:36;11.90;;;9.02;;
47669;SDS011;33408;52.062;11.722;2023-05-07T03:02:03;11.15;;;8.43;;
47669;SDS011;33408;52.062;11.722;2023-05-07T03:04:30;11.95;;;8.95;;
47669;SDS011;33408;52.062;11.722;2023-05-07T03:06:58;12.23;;;9.65;;
47669;SDS011;33408;52.062;11.722;2023-05-07T03:09:25;11.27;;;8.57;;
47669;SDS011;33408;52.062;11.722;2023-05-07T03:11:51;11.68;;;8.20;;
47669;SDS011;33408;52.062;11.722;2023-05-07T03:14:18;11.20;;;8.43;;
47669;SDS011;33408;52.062;11.722;2023-05-07T03:16:45;12.70;;;9.30;;
47669;SDS011;33408;52.062;11.722;2023-05-07T03:19:12;10.93;;;8.07;;
47669;SDS011;33408;52.062;11.722;2023-05-07T03:21:38;12.43;;;8.82;;
47669;SDS011;33408;52.062;11.722;2023-05-07T03:24:06;11.15;;;8.75;;
47669;SDS011;33408;52.062;11.722;2023-05-07T03:26:33;12.38;;;8.15;;
47669;SDS011;33408;52.062;11.722;2023-05-07T03:28:59;11.05;;;8.80;;
47669;SDS011;33408;52.062;11.722;2023-05-07T03:31:26;13.40;;;9.18;;
47669;SDS011;33408;52.062;11.722;2023-05-07T03:33:54;11.95;;;8.43;;
47669;SDS011;33408;52.062;11.722;2023-05-07T03:36:22;10.05;;;7.97;;
47669;SDS011;33408;52.062;11.722;2023-05-07T03:38:50;10.38;;;7.30;;
47669;SDS011;33408;52.062;11.722;2023-05-07T03:41:18;10.60;;;8.27;;
47669;SDS011;33408;52.062;11.722;2023-05-07T03:43:45;10.43;;;7.95;;
47669;SDS011;33408;52.062;11.722;2023-05-07T03:46:11;12.18;;;8.57;;
47669;SDS011;33408;52.062;11.722;2023-05-07T03:48:38;10.77;;;7.78;;
47669;SDS011;33408;52.062;11.722;2023-05-07T03:51:05;12.20;;;8.35;;
47669;SDS011;33408;52.062;11.722;2023-05-07T03:53:31;13.95;;;8.45;;
47669;SDS011;33408;52.062;11.722;2023-05-07T03:55:58;10.35;;;7.80;;
47669;SDS011;33408;52.062;11.722;2023-05-07T03:58:26;11.60;;;7.80;;
47669;SDS011;33408;52.062;11.722;2023-05-07T04:00:53;11.23;;;7.55;;
47669;SDS011;33408;52.062;11.722;2023-05-07T04:03:19;11.88;;;8.45;;
47669;SDS011;33408;52.062;11.722;2023-05-07T04:05:46;12.80;;;7.88;;
47669;SDS011;33408;52.062;11.722;2023-05-07T04:08:12;10.93;;;7.70;;
47669;SDS011;33408;52.062;11.722;2023-05-07T04:10:39;9.45;;;6.63;;
47669;SDS011;33408;52.062;11.722;2023-05-07T04:13:05;12.77;;;7.70;;
47669;SDS011;33408;52.062;11.722;2023-05-07T04:15:34;10.27;;;7.47;;
47669;SDS011;33408;52.062;11.722;2023-05-07T04:18:01;10.00;;;7.65;;
47669;SDS011;33408;52.062;11.722;2023-05-07T04:20:28;10.45;;;7.93;;
47669;SDS011;33408;52.062;11.722;2023-05-07T04:22:54;11.05;;;7.80;;
47669;SDS011;33408;52.062;11.722;2023-05-07T04:25:21;11.90;;;7.85;;
47669;SDS011;33408;52.062;11.722;2023-05-07T04:27:51;10.13;;;7.57;;
47669;SDS011;33408;52.062;11.722;2023-05-07T04:30:18;10.82;;;8.70;;
47669;SDS011;33408;52.062;11.722;2023-05-07T04:32:46;12.50;;;8.95;;
47669;SDS011;33408;52.062;11.722;2023-05-07T04:35:13;12.65;;;9.63;;
47669;SDS011;33408;52.062;11.722;2023-05-07T04:37:40;15.68;;;8.48;;
47669;SDS011;33408;52.062;11.722;2023-05-07T04:40:07;12.88;;;9.40;;
47669;SDS011;33408;52.062;11.722;2023-05-07T04:42:35;12.90;;;9.77;;
47669;SDS011;33408;52.062;11.722;2023-05-07T04:45:01;14.93;;;10.75;;
47669;SDS011;33408;52.062;11.722;2023-05-07T04:47:29;13.52;;;9.93;;
47669;SDS011;33408;52.062;11.722;2023-05-07T04:49:58;14.02;;;10.18;;
47669;SDS011;33408;52.062;11.722;2023-05-07T04:52:24;13.35;;;9.82;;
47669;SDS011;33408;52.062;11.722;2023-05-07T04:54:51;13.93;;;9.98;;
47669;SDS011;33408;52.062;11.722;2023-05-07T04:57:18;11.98;;;9.18;;
47669;SDS011;33408;52.062;11.722;2023-05-07T04:59:44;14.10;;;9.40;;
47669;SDS011;33408;52.062;11.722;2023-05-07T05:02:11;11.63;;;8.52;;
47669;SDS011;33408;52.062;11.722;2023-05-07T05:04:37;12.10;;;8.20;;
47669;SDS011;33408;52.062;11.722;2023-05-07T05:07:05;11.75;;;8.02;;
47669;SDS011;33408;52.062;11.722;2023-05-07T05:09:32;10.35;;;6.90;;
47669;SDS011;33408;52.062;11.722;2023-05-07T05:11:59;11.38;;;8.00;;
47669;SDS011;33408;52.062;11.722;2023-05-07T05:14:26;9.50;;;6.53;;
47669;SDS011;33408;52.062;11.722;2023-05-07T05:16:52;9.55;;;6.90;;
47669;SDS011;33408;52.062;11.722;2023-05-07T05:19:19;10.70;;;6.78;;
47669;SDS011;33408;52.062;11.722;2023-05-07T05:21:45;10.60;;;6.78;;
47669;SDS011;33408;52.062;11.722;2023-05-07T05:24:13;9.73;;;6.40;;
47669;SDS011;33408;52.062;11.722;2023-05-07T05:26:40;9.05;;;6.72;;
47669;SDS011;33408;52.062;11.722;2023-05-07T05:29:06;9.23;;;6.78;;
47669;SDS011;33408;52.062;11.722;2023-05-07T05:31:33;8.60;;;6.53;;
47669;SDS011;33408;52.062;11.722;2023-05-07T05:34:00;9.15;;;6.50;;
47669;SDS011;33408;52.062;11.722;2023-05-07T05:36:26;10.88;;;7.55;;
47669;SDS011;33408;52.062;11.722;2023-05-07T05:38:53;9.30;;;6.57;;
47669;SDS011;33408;52.062;11.722;2023-05-07T05:41:21;9.65;;;6.88;;
47669;SDS011;33408;52.062;11.722;2023-05-07T05:43:48;9.07;;;6.45;;
47669;SDS011;33408;52.062;11.722;2023-05-07T05:46:15;9.55;;;6.35;;
47669;SDS011;33408;52.062;11.722;2023-05-07T05:48:41;9.35;;;6.45;;
47669;SDS011;33408;52.062;11.722;2023-05-07T05:51:08;10.32;;;6.40;;
47669;SDS011;33408;52.062;11.722;2023-05-07T05:53:34;9.52;;;6.50;;
47669;SDS011;33408;52.062;11.722;2023-05-07T05:56:04;12.00;;;7.25;;
47669;SDS011;33408;52.062;11.722;2023-05-07T05:58:32;9.43;;;6.22;;
47669;SDS011;33408;52.062;11.722;2023-05-07T06:00:59;9.82;;;6.50;;
47669;SDS011;33408;52.062;11.722;2023-05-07T06:03:27;9.45;;;6.43;;
47669;SDS011;33408;52.062;11.722;2023-05-07T06:05:54;10.35;;;6.10;;
47669;SDS011;33408;52.062;11.722;2023-05-07T06:08:20;8.93;;;5.63;;
47669;SDS011;33408;52.062;11.722;2023-05-07T06:10:47;8.50;;;5.70;;
47669;SDS011;33408;52.062;11.722;2023-05-07T06:13:13;8.70;;;5.10;;
47669;SDS011;33408;52.062;11.722;2023-05-07T06:15:41;10.27;;;6.38;;
47669;SDS011;33408;52.062;11.722;2023-05-07T06:18:08;8.80;;;5.88;;
47669;SDS011;33408;52.062;11.722;2023-05-07T06:20:34;10.10;;;5.50;;
47669;SDS011;33408;52.062;11.722;2023-05-07T06:23:01;8.65;;;6.32;;
47669;SDS011;33408;52.062;11.722;2023-05-07T06:25:28;8.77;;;5.53;;
47669;SDS011;33408;52.062;11.722;2023-05-07T06:27:54;8.63;;;6.40;;
47669;SDS011;33408;52.062;11.722;2023-05-07T06:30:21;9.73;;;7.03;;
47669;SDS011;33408;52.062;11.722;2023-05-07T06:32:49;9.98;;;6.88;;
47669;SDS011;33408;52.062;11.722;2023-05-07T06:35:15;9.95;;;6.88;;
47669;SDS011;33408;52.062;11.722;2023-05-07T06:37:42;11.88;;;7.40;;
47669;SDS011;33408;52.062;11.722;2023-05-07T06:40:09;12.13;;;7.60;;
47669;SDS011;33408;52.062;11.722;2023-05-07T06:42:36;9.50;;;6.78;;
47669;SDS011;33408;52.062;11.722;2023-05-07T06:45:03;11.10;;;8.05;;
47669;SDS011;33408;52.062;11.722;2023-05-07T06:47:30;10.73;;;7.78;;
47669;SDS011;33408;52.062;11.722;2023-05-07T06:49:58;11.43;;;8.25;;
47669;SDS011;33408;52.062;11.722;2023-05-07T06:52:25;10.65;;;8.27;;
47669;SDS011;33408;52.062;11.722;2023-05-07T06:54:51;11.35;;;8.45;;
47669;SDS011;33408;52.062;11.722;2023-05-07T06:57:18;11.35;;;8.32;;
47669;SDS011;33408;52.062;11.722;2023-05-07T06:59:44;11.23;;;9.20;;
47669;SDS011;33408;52.062;11.722;2023-05-07T07:02:11;12.43;;;9.23;;
47669;SDS011;33408;52.062;11.722;2023-05-07T07:04:38;13.02;;;8.32;;
47669;SDS011;33408;52.062;11.722;2023-05-07T07:07:06;12.70;;;9.05;;
47669;SDS011;33408;52.062;11.722;2023-05-07T07:09:33;13.20;;;9.05;;
47669;SDS011;33408;52.062;11.722;2023-05-07T07:11:59;11.00;;;8.25;;
47669;SDS011;33408;52.062;11.722;2023-05-07T07:14:26;10.93;;;8.82;;
47669;SDS011;33408;52.062;11.722;2023-05-07T07:16:52;11.23;;;9.00;;
47669;SDS011;33408;52.062;11.722;2023-05-07T07:19:19;12.15;;;9.23;;
47669;SDS011;33408;52.062;11.722;2023-05-07T07:21:46;11.30;;;8.88;;
47669;SDS011;33408;52.062;11.722;2023-05-07T07:24:14;10.75;;;8.48;;
47669;SDS011;33408;52.062;11.722;2023-05-07T07:26:44;11.05;;;8.10;;
47669;SDS011;33408;52.062;11.722;2023-05-07T07:29:10;10.48;;;8.00;;
47669;SDS011;33408;52.062;11.722;2023-05-07T07:31:37;11.80;;;8.52;;
47669;SDS011;33408;52.062;11.722;2023-05-07T07:34:04;12.57;;;9.13;;
47669;SDS011;33408;52.062;11.722;2023-05-07T07:36:30;10.82;;;9.02;;
47669;SDS011;33408;52.062;11.722;2023-05-07T07:38:57;11.05;;;8.85;;
47669;SDS011;33408;52.062;11.722;2023-05-07T07:41:25;11.70;;;8.60;;
47669;SDS011;33408;52.062;11.722;2023-05-07T07:43:51;10.93;;;8.52;;
47669;SDS011;33408;52.062;11.722;2023-05-07T07:46:18;11.25;;;8.05;;
47669;SDS011;33408;52.062;11.722;2023-05-07T07:48:44;9.48;;;7.00;;
47669;SDS011;33408;52.062;11.722;2023-05-07T07:51:11;10.20;;;7.28;;
47669;SDS011;33408;52.062;11.722;2023-05-07T07:53:38;9.85;;;7.45;;
47669;SDS011;33408;52.062;11.722;2023-05-07T07:56:06;13.77;;;8.30;;
47669;SDS011;33408;52.062;11.722;2023-05-07T07:58:34;10.85;;;7.65;;
47669;SDS011;33408;52.062;11.722;2023-05-07T08:01:03;9.23;;;7.20;;
47669;SDS011;33408;52.062;11.722;2023-05-07T08:03:30;9.95;;;7.20;;
47669;SDS011;33408;52.062;11.722;2023-05-07T08:05:57;11.18;;;6.97;;
47669;SDS011;33408;52.062;11.722;2023-05-07T08:08:24;11.07;;;6.88;;
47669;SDS011;33408;52.062;11.722;2023-05-07T08:10:50;10.70;;;7.50;;
47669;SDS011;33408;52.062;11.722;2023-05-07T08:13:17;12.32;;;7.95;;
47669;SDS011;33408;52.062;11.722;2023-05-07T08:15:45;11.68;;;7.75;;
47669;SDS011;33408;52.062;11.722;2023-05-07T08:18:12;9.40;;;6.82;;
47669;SDS011;33408;52.062;11.722;2023-05-07T08:20:38;9.68;;;6.90;;
47669;SDS011;33408;52.062;11.722;2023-05-07T08:23:06;10.10;;;7.18;;
47669;SDS011;33408;52.062;11.722;2023-05-07T08:25:33;11.32;;;7.35;;
47669;SDS011;33408;52.062;11.722;2023-05-07T08:27:59;10.93;;;8.10;;
47669;SDS011;33408;52.062;11.722;2023-05-07T08:30:26;11.55;;;8.07;;
47669;SDS011;33408;52.062;11.722;2023-05-07T08:32:54;11.88;;;8.73;;
47669;SDS011;33408;52.062;11.722;2023-05-07T08:35:21;10.90;;;7.18;;
47669;SDS011;33408;52.062;11.722;2023-05-07T08:37:47;11.18;;;7.90;;
47669;SDS011;33408;52.062;11.722;2023-05-07T08:40:14;11.50;;;8.10;;
47669;SDS011;33408;52.062;11.722;2023-05-07T08:42:41;12.75;;;8.55;;
47669;SDS011;33408;52.062;11.722;2023-05-07T08:45:09;14.77;;;8.43;;
47669;SDS011;33408;52.062;11.722;2023-05-07T08:47:40;10.50;;;8.30;;
47669;SDS011;33408;52.062;11.722;2023-05-07T08:50:11;11.02;;;8.00;;
47669;SDS011;33408;52.062;11.722;2023-05-07T08:52:38;12.57;;;8.35;;
47669;SDS011;33408;52.062;11.722;2023-05-07T08:55:05;11.43;;;8.70;;
47669;SDS011;33408;52.062;11.722;2023-05-07T08:57:33;11.20;;;7.82;;
47669;SDS011;33408;52.062;11.722;2023-05-07T09:00:00;14.05;;;8.35;;
47669;SDS011;33408;52.062;11.722;2023-05-07T09:02:27;10.80;;;7.68;;
47669;SDS011;33408;52.062;11.722;2023-05-07T09:04:54;12.88;;;8.05;;
47669;SDS011;33408;52.062;11.722;2023-05-07T09:07:22;12.75;;;9.55;;
47669;SDS011;33408;52.062;11.722;2023-05-07T09:09:48;12.00;;;8.85;;
47669;SDS011;33408;52.062;11.722;2023-05-07T09:12:15;12.75;;;8.98;;
47669;SDS011;33408;52.062;11.722;2023-05-07T09:14:43;14.82;;;9.70;;
47669;SDS011;33408;52.062;11.722;2023-05-07T09:17:10;11.20;;;8.25;;
47669;SDS011;33408;52.062;11.722;2023-05-07T09:19:37;12.57;;;8.45;;
47669;SDS011;33408;52.062;11.722;2023-05-07T09:22:05;11.32;;;7.88;;
47669;SDS011;33408;52.062;11.722;2023-05-07T09:24:34;11.35;;;7.53;;
47669;SDS011;33408;52.062;11.722;2023-05-07T09:27:02;12.57;;;7.57;;
47669;SDS011;33408;52.062;11.722;2023-05-07T09:29:30;17.95;;;8.13;;
47669;SDS011;33408;52.062;11.722;2023-05-07T09:32:00;10.40;;;7.25;;
47669;SDS011;33408;52.062;11.722;2023-05-07T09:34:27;10.15;;;7.47;;
47669;SDS011;33408;52.062;11.722;2023-05-07T09:36:54;10.63;;;7.10;;
47669;SDS011;33408;52.062;11.722;2023-05-07T09:39:21;9.10;;;6.38;;
47669;SDS011;33408;52.062;11.722;2023-05-07T09:41:50;12.80;;;7.50;;
47669;SDS011;33408;52.062;11.722;2023-05-07T09:44:19;11.25;;;7.05;;
47669;SDS011;33408;52.062;11.722;2023-05-07T09:46:47;10.20;;;7.10;;
47669;SDS011;33408;52.062;11.722;2023-05-07T09:51:47;10.80;;;7.60;;
47669;SDS011;33408;52.062;11.722;2023-05-07T09:54:15;10.45;;;6.82;;
47669;SDS011;33408;52.062;11.722;2023-05-07T09:56:42;8.85;;;6.45;;
47669;SDS011;33408;52.062;11.722;2023-05-07T09:59:12;11.30;;;7.90;;
47669;SDS011;33408;52.062;11.722;2023-05-07T10:01:40;9.77;;;6.95;;
47669;SDS011;33408;52.062;11.722;2023-05-07T10:04:08;11.32;;;7.60;;
47669;SDS011;33408;52.062;11.722;2023-05-07T10:06:39;11.15;;;7.05;;
47669;SDS011;33408;52.062;11.722;2023-05-07T10:09:07;9.27;;;6.20;;
47669;SDS011;33408;52.062;11.722;2023-05-07T10:11:33;9.73;;;6.80;;
47669;SDS011;33408;52.062;11.722;2023-05-07T10:14:00;11.05;;;7.15;;
47669;SDS011;33408;52.062;11.722;2023-05-07T10:16:30;10.38;;;6.25;;
47669;SDS011;33408;52.062;11.722;2023-05-07T10:18:58;8.65;;;6.43;;
47669;SDS011;33408;52.062;11.722;2023-05-07T10:21:26;9.52;;;6.32;;
47669;SDS011;33408;52.062;11.722;2023-05-07T10:23:57;9.27;;;6.05;;
47669;SDS011;33408;52.062;11.722;2023-05-07T10:26:25;10.57;;;7.03;;
47669;SDS011;33408;52.062;11.722;2023-05-07T10:28:56;8.88;;;6.22;;
47669;SDS011;33408;52.062;11.722;2023-05-07T10:31:35;9.13;;;5.47;;
47669;SDS011;33408;52.062;11.722;2023-05-07T10:34:16;9.65;;;6.80;;
47669;SDS011;33408;52.062;11.722;2023-05-07T10:36:47;10.68;;;7.35;;
47669;SDS011;33408;52.062;11.722;2023-05-07T10:39:15;9.50;;;6.20;;
47669;SDS011;33408;52.062;11.722;2023-05-07T10:41:42;10.07;;;6.75;;
47669;SDS011;33408;52.062;11.722;2023-05-07T10:44:09;8.82;;;6.32;;
47669;SDS011;33408;52.062;11.722;2023-05-07T10:46:37;9.57;;;6.57;;
47669;SDS011;33408;52.062;11.722;2023-05-07T10:49:11;12.57;;;6.20;;
47669;SDS011;33408;52.062;11.722;2023-05-07T10:51:38;11.07;;;6.55;;
47669;SDS011;33408;52.062;11.722;2023-05-07T10:54:21;9.40;;;6.05;;
47669;SDS011;33408;52.062;11.722;2023-05-07T10:56:48;10.13;;;6.03;;
47669;SDS011;33408;52.062;11.722;2023-05-07T10:59:35;9.20;;;6.32;;
47669;SDS011;33408;52.062;11.722;2023-05-07T11:02:09;14.70;;;6.43;;
47669;SDS011;33408;52.062;11.722;2023-05-07T11:04:36;9.15;;;6.40;;
47669;SDS011;33408;52.062;11.722;2023-05-07T11:07:25;9.18;;;6.93;;
47669;SDS011;33408;52.062;11.722;2023-05-07T11:10:00;10.85;;;7.07;;
47669;SDS011;33408;52.062;11.722;2023-05-07T11:18:10;9.85;;;6.60;;
47669;SDS011;33408;52.062;11.722;2023-05-07T11:20:45;11.05;;;7.03;;
47669;SDS011;33408;52.062;11.722;2023-05-07T11:26:26;9.57;;;5.78;;
47669;SDS011;33408;52.062;11.722;2023-05-07T11:28:54;10.77;;;6.68;;
47669;SDS011;33408;52.062;11.722;2023-05-07T11:31:22;9.90;;;5.25;;
47669;SDS011;33408;52.062;11.722;2023-05-07T11:33:55;8.33;;;6.33;;
47669;SDS011;33408;52.062;11.722;2023-05-07T11:36:22;8.30;;;5.78;;
47669;SDS011;33408;52.062;11.722;2023-05-07T11:38:50;9.63;;;6.53;;
47669;SDS011;33408;52.062;11.722;2023-05-07T11:41:16;10.00;;;6.72;;
47669;SDS011;33408;52.062;11.722;2023-05-07T11:43:57;10.63;;;7.35;;
47669;SDS011;33408;52.062;11.722;2023-05-07T11:46:25;9.60;;;6.20;;
47669;SDS011;33408;52.062;11.722;2023-05-07T11:48:52;10.00;;;6.50;;
47669;SDS011;33408;52.062;11.722;2023-05-07T11:51:20;8.55;;;6.13;;
47669;SDS011;33408;52.062;11.722;2023-05-07T11:53:48;8.30;;;5.70;;
47669;SDS011;33408;52.062;11.722;2023-05-07T11:56:15;7.05;;;4.88;;
47669;SDS011;33408;52.062;11.722;2023-05-07T11:58:44;7.53;;;5.07;;
47669;SDS011;33408;52.062;11.722;2023-05-07T12:01:12;7.78;;;5.40;;
47669;SDS011;33408;52.062;11.722;2023-05-07T12:03:41;7.88;;;5.22;;
47669;SDS011;33408;52.062;11.722;2023-05-07T12:06:11;8.85;;;5.72;;
47669;SDS011;33408;52.062;11.722;2023-05-07T12:08:40;10.32;;;6.60;;
47669;SDS011;33408;52.062;11.722;2023-05-07T12:11:08;9.40;;;5.68;;
47669;SDS011;33408;52.062;11.722;2023-05-07T12:13:38;9.55;;;5.78;;
47669;SDS011;33408;52.062;11.722;2023-05-07T12:16:05;8.15;;;5.47;;
47669;SDS011;33408;52.062;11.722;2023-05-07T12:18:33;10.18;;;6.07;;
47669;SDS011;33408;52.062;11.722;2023-05-07T12:21:01;9.25;;;5.78;;
47669;SDS011;33408;52.062;11.722;2023-05-07T12:23:28;8.50;;;5.82;;
47669;SDS011;33408;52.062;11.722;2023-05-07T12:25:56;9.00;;;5.47;;
47669;SDS011;33408;52.062;11.722;2023-05-07T12:28:23;9.82;;;6.13;;
47669;SDS011;33408;52.062;11.722;2023-05-07T12:30:50;8.98;;;5.43;;
47669;SDS011;33408;52.062;11.722;2023-05-07T12:33:18;9.02;;;5.10;;
47669;SDS011;33408;52.062;11.722;2023-05-07T12:35:46;9.60;;;5.97;;
47669;SDS011;33408;52.062;11.722;2023-05-07T12:38:15;8.25;;;5.75;;
47669;SDS011;33408;52.062;11.722;2023-05-07T12:40:44;8.95;;;6.00;;
47669;SDS011;33408;52.062;11.722;2023-05-07T12:43:17;9.07;;;5.97;;
47669;SDS011;33408;52.062;11.722;2023-05-07T12:45:44;8.35;;;5.18;;
47669;SDS011;33408;52.062;11.722;2023-05-07T12:48:12;11.00;;;5.93;;
47669;SDS011;33408;52.062;11.722;2023-05-07T12:50:39;8.63;;;5.80;;
47669;SDS011;33408;52.062;11.722;2023-05-07T12:53:07;10.52;;;6.13;;
47669;SDS011;33408;52.062;11.722;2023-05-07T12:55:40;10.25;;;5.80;;
47669;SDS011;33408;52.062;11.722;2023-05-07T12:58:08;8.30;;;;;
47669;SDS011;33408;52.062;11.722;2023-05-07T13:00:43;7.57;;;5.32;;
47669;SDS011;33408;52.062;11.722;2023-05-07T13:03:11;8.88;;;5.93;;
47669;SDS011;33408;52.062;11.722;2023-05-07T13:05:37;11.43;;;6.57;;
47669;SDS011;33408;52.062;11.722;2023-05-07T13:08:05;9.18;;;6.65;;
47669;SDS011;33408;52.062;11.722;2023-05-07T13:10:31;8.25;;;6.18;;
47669;SDS011;33408;52.062;11.722;2023-05-07T13:12:59;9.20;;;6.68;;
47669;SDS011;33408;52.062;11.722;2023-05-07T13:15:27;9.55;;;6.63;;
47669;SDS011;33408;52.062;11.722;2023-05-07T13:17:53;10.60;;;6.38;;
47669;SDS011;33408;52.062;11.722;2023-05-07T13:20:21;8.88;;;7.10;;
47669;SDS011;33408;52.062;11.722;2023-05-07T13:22:47;11.18;;;6.38;;
47669;SDS011;33408;52.062;11.722;2023-05-07T13:25:14;9.65;;;6.70;;
47669;SDS011;33408;52.062;11.722;2023-05-07T13:27:41;9.90;;;7.13;;
47669;SDS011;33408;52.062;11.722;2023-05-07T13:30:08;9.40;;;6.97;;
47669;SDS011;33408;52.062;11.722;2023-05-07T13:32:36;13.75;;;6.70;;
47669;SDS011;33408;52.062;11.722;2023-05-07T13:35:02;8.98;;;6.10;;
47669;SDS011;33408;52.062;11.722;2023-05-07T13:37:29;10.32;;;6.13;;
47669;SDS011;33408;52.062;11.722;2023-05-07T13:39:56;10.48;;;6.60;;
47669;SDS011;33408;52.062;11.722;2023-05-07T13:42:22;11.63;;;6.35;;
47669;SDS011;33408;52.062;11.722;2023-05-07T13:44:49;8.57;;;4.95;;
47669;SDS011;33408;52.062;11.722;2023-05-07T13:47:16;10.00;;;6.10;;
47669;SDS011;33408;52.062;11.722;2023-05-07T13:49:44;8.07;;;5.45;;
47669;SDS011;33408;52.062;11.722;2023-05-07T13:52:10;7.85;;;5.53;;
47669;SDS011;33408;52.062;11.722;2023-05-07T13:54:37;9.30;;;5.07;;
47669;SDS011;33408;52.062;11.722;2023-05-07T13:57:04;8.27;;;5.20;;
47669;SDS011;33408;52.062;11.722;2023-05-07T13:59:30;7.95;;;5.03;;
47669;SDS011;33408;52.062;11.722;2023-05-07T14:01:57;8.20;;;5.18;;
47669;SDS011;33408;52.062;11.722;2023-05-07T14:04:24;8.98;;;5.50;;
47669;SDS011;33408;52.062;11.722;2023-05-07T14:06:53;7.97;;;5.03;;
47669;SDS011;33408;52.062;11.722;2023-05-07T14:09:19;7.35;;;4.97;;
47669;SDS011;33408;52.062;11.722;2023-05-07T14:11:46;7.03;;;4.70;;
47669;SDS011;33408;52.062;11.722;2023-05-07T14:14:16;7.25;;;5.13;;
47669;SDS011;33408;52.062;11.722;2023-05-07T14:16:42;7.40;;;5.07;;
47669;SDS011;33408;52.062;11.722;2023-05-07T14:19:09;11.77;;;5.43;;
47669;SDS011;33408;52.062;11.722;2023-05-07T14:21:36;6.88;;;4.30;;
47669;SDS011;33408;52.062;11.722;2023-05-07T14:24:05;7.53;;;4.07;;
47669;SDS011;33408;52.062;11.722;2023-05-07T14:26:33;7.20;;;4.13;;
47669;SDS011;33408;52.062;11.722;2023-05-07T14:28:59;7.00;;;4.25;;
47669;SDS011;33408;52.062;11.722;2023-05-07T14:31:26;8.52;;;3.92;;
47669;SDS011;33408;52.062;11.722;2023-05-07T14:33:53;6.53;;;4.00;;
47669;SDS011;33408;52.062;11.722;2023-05-07T14:36:19;6.93;;;3.85;;
47669;SDS011;33408;52.062;11.722;2023-05-07T14:38:47;6.15;;;3.42;;